Time;durP1;ratioP1;P1;durP2;ratioP2;P2;SDS_P1;SDS_P2;PMS_P1;PMS_P2;Temp;Humidity;BMP_temperature;BMP_pressure;BME280_temperature;BME280_humidity;BME280_pressure;Samples;Min_cycle;Max_cycle;Signal;HPM_P1;HPM_P2
2023/07/05 00:02:17;;;;;;;19.45;3.42;;;;;;;10.26;100.00;99758.03;6253820;22;20005;-94
2023/07/05 00:04:44;;;;;;;12.57;2.90;;;;;;;10.25;100.00;99760.72;6254151;22;20010;-93
2023/07/05 00:07:10;;;;;;;9.48;3.28;;;;;;;10.24;100.00;99759.91;6254374;22;20005;-94
2023/07/05 00:09:35;;;;;;;10.75;3.08;;;;;;;10.17;100.00;99762.97;6253957;22;20079;-94
2023/07/05 00:12:00;;;;;;;3.85;2.47;;;;;;;10.12;100.00;99771.03;6254305;22;20070;-94
2023/07/05 00:14:27;;;;;;;16.38;2.80;;;;;;;10.12;100.00;99760.72;6253797;22;20036;-95
2023/07/05 00:16:53;;;;;;;11.60;3.25;;;;;;;10.03;100.00;99767.31;6151100;23;20068;-95
2023/07/05 00:19:18;;;;;;;7.70;3.10;;;;;;;10.00;100.00;99769.28;6253967;22;20032;-93
2023/07/05 00:21:44;;;;;;;8.73;2.40;;;;;;;9.94;100.00;99767.09;6253570;22;20008;-94
2023/07/05 00:24:09;;;;;;;10.90;3.00;;;;;;;9.83;100.00;99758.31;6253505;22;20084;-94
2023/07/05 00:26:34;;;;;;;7.10;2.95;;;;;;;9.86;100.00;99768.41;6253613;22;20032;-94
2023/07/05 00:29:00;;;;;;;12.13;3.13;;;;;;;9.79;100.00;99769.72;6254110;22;20086;-94
2023/07/05 00:31:25;;;;;;;5.78;2.60;;;;;;;9.83;100.00;99771.19;6150883;22;20306;-94
2023/07/05 00:33:51;;;;;;;8.00;3.42;;;;;;;9.67;100.00;99775.69;6254251;22;20043;-93
2023/07/05 00:36:16;;;;;;;13.25;3.25;;;;;;;9.57;100.00;99770.28;6253909;22;20004;-94
2023/07/05 00:38:41;;;;;;;6.75;2.75;;;;;;;9.55;100.00;99774.72;6253681;22;19997;-94
2023/07/05 00:41:07;;;;;;;6.60;2.40;;;;;;;9.50;100.00;99775.94;6253813;22;20013;-93
2023/07/05 00:43:33;;;;;;;6.22;2.65;;;;;;;9.56;100.00;99780.69;6254281;22;20008;-93
2023/07/05 00:46:24;;;;;;;5.45;2.45;;;;;;;9.48;100.00;99780.34;6253569;22;20006;-94
2023/07/05 00:49:02;;;;;;;5.13;2.60;;;;;;;9.45;100.00;99775.41;6242209;22;20006;-94
2023/07/05 00:51:36;;;;;;;9.45;2.75;;;;;;;9.47;100.00;99778.72;6253804;22;20006;-92
2023/07/05 00:54:05;;;;;;;6.60;2.58;;;;;;;9.38;100.00;99780.94;6151037;23;20012;-94
2023/07/05 00:56:41;;;;;;;6.50;2.80;;;;;;;9.32;100.00;99786.47;6253957;22;20442;-93
2023/07/05 00:59:10;;;;;;;6.45;2.70;;;;;;;9.34;100.00;99786.38;6253814;22;20002;-94
2023/07/05 01:01:36;;;;;;;4.43;2.53;;;;;;;9.33;100.00;99782.97;6253611;22;20439;-94
2023/07/05 01:04:04;;;;;;;6.22;2.90;;;;;;;9.35;100.00;99788.03;6254051;22;20379;-95
2023/07/05 01:06:30;;;;;;;6.97;2.88;;;;;;;9.31;100.00;99789.97;6253704;22;20500;-94
2023/07/05 01:08:56;;;;;;;8.80;2.47;;;;;;;9.31;100.00;99789.97;6253433;22;20022;-94
2023/07/05 01:11:22;;;;;;;69.18;22.63;;;;;;;9.38;100.00;99795.56;6150699;22;20013;-93
2023/07/05 01:13:58;;;;;;;15.50;4.57;;;;;;;9.25;100.00;99792.94;6253998;22;20006;-94
2023/07/05 01:16:49;;;;;;;36.75;12.68;;;;;;;9.23;100.00;99791.38;6253636;22;20005;-93
2023/07/05 01:19:47;;;;;;;93.97;32.80;;;;;;;9.29;100.00;99796.97;6253231;22;20001;-94
2023/07/05 01:22:35;;;;;;;39.65;14.77;;;;;;;9.25;100.00;99802.41;6218364;22;20045;-93
2023/07/05 01:25:44;;;;;;;18.30;5.97;;;;;;;9.22;100.00;99800.84;6253370;22;20013;-91
2023/07/05 01:28:28;;;;;;;48.85;14.63;;;;;;;9.19;100.00;99803.59;6253253;22;20375;-94
2023/07/05 01:31:02;;;;;;;45.25;15.30;;;;;;;9.21;100.00;99805.16;6150987;22;20424;-94
2023/07/05 01:33:50;;;;;;;26.80;8.38;;;;;;;9.21;100.00;99805.16;6253509;22;20047;-91
2023/07/05 01:36:17;;;;;;;9.48;4.30;;;;;;;9.49;100.00;99802.63;6253824;22;20100;-94
2023/07/05 01:38:42;;;;;;;11.80;4.22;;;;;;;9.43;100.00;99804.63;6253401;22;19998;-94
2023/07/05 01:41:07;;;;;;;13.18;3.80;;;;;;;9.58;100.00;99809.75;6252952;22;20055;-95
2023/07/05 01:43:38;;;;;;;14.25;4.45;;;;;;;9.64;100.00;99802.47;6253576;22;20011;-92
2023/07/05 01:46:21;;;;;;;15.07;4.72;;;;;;;9.59;100.00;99803.69;6150660;23;20005;-94
2023/07/05 01:49:12;;;;;;;12.18;4.95;;;;;;;9.64;100.00;99799.91;6150670;23;20428;-95
2023/07/05 01:51:48;;;;;;;21.40;5.22;;;;;;;10.00;100.00;99795.88;6253135;22;20041;-94
2023/07/05 01:54:58;;;;;;;17.13;5.82;;;;;;;10.03;100.00;99792.28;6253028;22;20439;-94
2023/07/05 01:57:36;;;;;;;19.50;5.03;;;;;;;9.88;100.00;99799.25;6198585;22;20006;-93
2023/07/05 02:00:15;;;;;;;11.85;5.03;;;;;;;9.94;100.00;99798.03;6252870;22;20076;-94
2023/07/05 02:02:51;;;;;;;15.00;5.07;;;;;;;10.00;100.00;99800.22;6253405;22;19998;-95
2023/07/05 02:05:18;;;;;;;12.23;4.70;;;;;;;9.94;100.00;99804.00;6253119;22;20056;-94
2023/07/05 02:07:44;;;;;;;12.85;5.10;;;;;;;9.83;100.00;99804.69;6150358;23;20059;-95
2023/07/05 02:10:10;;;;;;;10.82;4.20;;;;;;;9.82;100.00;99805.59;6252973;22;20009;-94
2023/07/05 02:12:36;;;;;;;10.07;4.80;;;;;;;9.72;100.00;99799.41;6253024;22;20059;-94
2023/07/05 02:15:01;;;;;;;13.13;5.13;;;;;;;9.75;100.00;99804.34;6150362;23;20428;-94
2023/07/05 02:17:28;;;;;;;15.68;4.97;;;;;;;9.86;100.00;99795.94;6150682;22;20009;-94
2023/07/05 02:19:53;;;;;;;13.55;4.70;;;;;;;9.82;100.00;99794.47;6253055;22;20013;-94
2023/07/05 02:22:19;;;;;;;11.82;4.00;;;;;;;9.72;100.00;99798.56;6252813;22;20001;-95
2023/07/05 02:24:45;;;;;;;10.27;4.18;;;;;;;9.71;100.00;99802.09;6253251;22;20006;-95
2023/07/05 02:27:11;;;;;;;13.25;5.15;;;;;;;9.65;100.00;99803.28;6253287;22;20035;-94
2023/07/05 02:29:36;;;;;;;13.25;4.22;;;;;;;9.63;100.00;99794.81;6252981;22;20088;-93
2023/07/05 02:32:01;;;;;;;14.82;4.50;;;;;;;9.57;100.00;99795.22;6252898;22;20009;-93
2023/07/05 02:34:28;;;;;;;13.20;5.70;;;;;;;9.42;100.00;99800.44;6252822;22;20002;-95
2023/07/05 02:36:53;;;;;;;8.95;4.07;;;;;;;9.38;100.00;99798.94;6252736;22;20454;-94
2023/07/05 02:39:19;;;;;;;12.20;5.07;;;;;;;9.39;100.00;99792.91;6252791;22;20013;-94
2023/07/05 02:41:44;;;;;;;13.93;4.93;;;;;;;9.34;100.00;99797.50;6252912;22;20006;-94
2023/07/05 02:44:09;;;;;;;8.93;4.10;;;;;;;9.28;100.00;99799.63;6150717;23;20305;-94
2023/07/05 02:46:36;;;;;;;11.75;4.05;;;;;;;9.22;100.00;99800.84;6254065;22;20017;-92
2023/07/05 02:49:02;;;;;;;9.73;3.90;;;;;;;9.23;100.00;99801.69;6255253;22;20005;-94
2023/07/05 02:51:28;;;;;;;10.77;4.22;;;;;;;9.27;100.00;99803.97;6151371;22;20006;-93
2023/07/05 02:53:54;;;;;;;8.00;3.95;;;;;;;9.27;100.00;99798.00;6151307;22;20059;-94
2023/07/05 02:56:20;;;;;;;8.23;3.50;;;;;;;9.37;100.00;99802.47;6151747;23;20014;-93
2023/07/05 02:58:46;;;;;;;8.95;4.10;;;;;;;9.47;100.00;99799.31;6254916;22;19998;-94
2023/07/05 03:01:11;;;;;;;8.50;4.10;;;;;;;9.43;100.00;99807.22;6254566;22;20002;-94
2023/07/05 03:03:37;;;;;;;15.07;4.20;;;;;;;9.40;100.00;99806.59;6254806;22;20009;-95
2023/07/05 03:06:03;;;;;;;9.52;3.33;;;;;;;9.42;100.00;99810.72;6254473;22;20115;-93
2023/07/05 03:08:28;;;;;;;9.63;4.00;;;;;;;9.43;100.00;99814.94;6151216;23;20009;-94
2023/07/05 03:10:58;;;;;;;9.38;4.00;;;;;;;9.37;100.00;99815.34;6254586;22;20506;-95
2023/07/05 03:13:31;;;;;;;7.68;3.53;;;;;;;9.27;100.00;99819.41;6151224;23;20008;-94
2023/07/05 03:15:57;;;;;;;8.77;4.22;;;;;;;9.30;100.00;99819.22;6254523;22;20475;-94
2023/07/05 03:18:24;;;;;;;6.03;3.00;;;;;;;9.33;100.00;99826.75;6254765;22;20093;-94
2023/07/05 03:20:49;;;;;;;6.57;3.10;;;;;;;9.38;100.00;99822.13;6254480;22;20084;-95
2023/07/05 03:23:16;;;;;;;8.77;3.53;;;;;;;9.35;100.00;99818.94;6254868;22;20056;-92
2023/07/05 03:25:52;;;;;;;9.82;3.42;;;;;;;9.42;100.00;99812.47;6254540;22;20009;-94
2023/07/05 03:28:17;;;;;;;16.00;4.57;;;;;;;9.45;100.00;99822.59;6254260;22;20092;-94
2023/07/05 03:30:42;;;;;;;10.25;4.10;;;;;;;9.49;100.00;99812.94;6254444;22;20401;-95
2023/07/05 03:33:08;;;;;;;8.63;3.60;;;;;;;9.55;100.00;99817.69;6254266;22;20008;-95
2023/07/05 03:35:33;;;;;;;9.02;3.97;;;;;;;9.54;100.00;99816.03;6254289;22;20163;-95
2023/07/05 03:37:58;;;;;;;6.13;3.55;;;;;;;9.51;100.00;99813.63;6151066;23;20447;-95
2023/07/05 03:40:24;;;;;;;9.48;4.38;;;;;;;9.57;100.00;99821.00;6254199;22;20005;-94
2023/07/05 03:42:49;;;;;;;12.77;5.28;;;;;;;9.69;100.00;99825.38;6254063;22;20002;-93
2023/07/05 03:45:14;;;;;;;14.85;5.57;;;;;;;9.75;100.00;99819.00;6254009;22;20519;-95
2023/07/05 03:47:40;;;;;;;8.75;5.43;;;;;;;9.86;100.00;99825.13;6254187;22;20006;-94
2023/07/05 03:50:06;;;;;;;9.07;4.10;;;;;;;9.82;100.00;99823.66;6254011;22;20439;-94
2023/07/05 03:52:31;;;;;;;7.63;3.70;;;;;;;9.74;100.00;99833.63;6151011;23;20428;-94
2023/07/05 03:54:58;;;;;;;6.60;3.58;;;;;;;9.77;100.00;99837.75;6150863;23;20432;-94
2023/07/05 03:57:23;;;;;;;9.23;4.65;;;;;;;9.72;100.00;99825.16;6254246;22;20425;-96
2023/07/05 03:59:49;;;;;;;6.63;4.40;;;;;;;9.74;100.00;99833.63;6254025;22;19998;-93
2023/07/05 04:02:14;;;;;;;11.52;5.10;;;;;;;9.76;100.00;99836.13;6150677;23;20058;-94
2023/07/05 04:04:39;;;;;;;8.77;5.15;;;;;;;9.78;100.00;99840.25;6150853;23;20084;-93
2023/07/05 04:07:05;;;;;;;14.52;4.70;;;;;;;9.82;100.00;99841.69;6253807;22;20431;-94
2023/07/05 04:09:30;;;;;;;7.03;4.78;;;;;;;9.82;100.00;99833.97;6254007;22;20016;-94
2023/07/05 04:11:55;;;;;;;9.77;5.38;;;;;;;9.85;100.00;99841.53;6253951;22;20002;-94
2023/07/05 04:14:21;;;;;;;13.75;5.60;;;;;;;9.88;100.00;99853.38;6253872;22;20058;-94
2023/07/05 04:16:47;;;;;;;7.63;5.18;;;;;;;9.96;100.00;99852.88;6253880;22;20055;-93
2023/07/05 04:19:12;;;;;;;12.45;6.32;;;;;;;10.16;100.00;99852.41;6254363;22;20009;-95
2023/07/05 04:21:39;;;;;;;11.65;6.13;;;;;;;10.11;100.00;99854.47;6254047;22;20001;-93
2023/07/05 04:24:05;;;;;;;7.13;4.95;;;;;;;10.12;100.00;99868.19;6253988;22;20010;-93
2023/07/05 04:26:31;;;;;;;10.20;6.90;;;;;;;10.15;100.00;99868.81;6253647;22;20020;-94
2023/07/05 04:28:56;;;;;;;11.35;6.13;;;;;;;10.17;100.00;99861.81;6150809;23;20036;-93
2023/07/05 04:31:28;;;;;;;8.93;6.30;;;;;;;10.21;100.00;99868.41;6253950;22;20424;-94
2023/07/05 04:33:55;;;;;;;12.70;5.30;;;;;;;10.26;100.00;99871.50;6150874;23;20036;-92
2023/07/05 04:36:21;;;;;;;8.88;5.78;;;;;;;10.30;100.00;99876.53;6253594;22;20006;-92
2023/07/05 04:38:46;;;;;;;7.63;5.65;;;;;;;10.33;100.00;99882.28;6151051;23;20425;-94
2023/07/05 04:41:12;;;;;;;9.27;5.93;;;;;;;10.37;100.00;99875.19;6253502;22;20027;-94
2023/07/05 04:43:37;;;;;;;10.77;5.78;;;;;;;10.43;100.00;99877.34;6253780;22;20028;-94
2023/07/05 04:46:03;;;;;;;6.50;4.85;;;;;;;10.47;100.00;99883.97;6150676;23;20005;-95
2023/07/05 04:48:29;;;;;;;8.10;5.07;;;;;;;10.52;100.00;99887.06;6253734;22;20009;-94
2023/07/05 04:50:57;;;;;;;10.55;5.65;;;;;;;10.60;100.00;99900.28;6253804;22;20054;-94
2023/07/05 04:53:24;;;;;;;12.25;6.43;;;;;;;10.79;100.00;99904.25;6253742;22;20360;-94
2023/07/05 04:55:52;;;;;;;12.85;5.97;;;;;;;10.85;100.00;99903.81;6254144;22;20298;-94
2023/07/05 04:58:19;;;;;;;13.13;6.90;;;;;;;10.84;100.00;99899.59;6253663;22;20052;-93
2023/07/05 05:00:46;;;;;;;11.43;6.55;;;;;;;10.93;100.00;99904.16;6253451;22;20018;-95
2023/07/05 05:03:15;;;;;;;9.45;6.47;;;;;;;11.00;100.00;99901.97;6150948;23;20002;-94
2023/07/05 05:05:44;;;;;;;10.50;6.25;;;;;;;11.19;100.00;99904.94;6253622;22;20018;-94
2023/07/05 05:08:10;;;;;;;8.98;6.18;;;;;;;11.09;100.00;99907.31;6253200;22;20016;-93
2023/07/05 05:10:37;;;;;;;10.88;6.25;;;;;;;11.14;100.00;99905.28;6253187;22;19998;-94
2023/07/05 05:13:03;;;;;;;12.38;6.45;;;;;;;11.17;100.00;99913.72;6253717;22;20016;-94
2023/07/05 05:15:28;;;;;;;7.32;5.30;;;;;;;11.18;100.00;99912.81;6253620;22;20075;-94
2023/07/05 05:17:54;;;;;;;15.90;6.32;;;;;;;11.31;100.00;99916.19;6150807;23;20420;-93
2023/07/05 05:20:19;;;;;;;7.80;5.38;;;;;;;11.33;100.00;99915.16;6150440;22;20344;-94
2023/07/05 05:22:44;;;;;;;6.53;5.15;;;;;;;11.32;100.00;99917.84;6253701;22;20006;-94
2023/07/05 05:25:09;;;;;;;8.23;5.72;;;;;;;11.35;100.00;99923.63;6150880;23;20550;-95
2023/07/05 05:27:35;;;;;;;10.68;5.15;;;;;;;11.38;100.00;99916.59;6151080;23;20009;-93
2023/07/05 05:30:00;;;;;;;10.27;5.53;;;;;;;11.48;100.00;99917.59;6253241;22;20006;-94
2023/07/05 05:32:27;;;;;;;9.50;5.18;;;;;;;11.54;100.00;99915.44;6150974;23;19997;-93
2023/07/05 05:34:52;;;;;;;11.45;5.43;;;;;;;11.55;100.00;99914.47;6253597;22;20005;-93
2023/07/05 05:37:18;;;;;;;9.23;4.93;;;;;;;11.63;100.00;99916.56;6150657;23;20364;-93
2023/07/05 05:39:43;;;;;;;11.93;4.85;;;;;;;11.68;100.00;99924.81;6253159;22;20498;-94
2023/07/05 05:42:09;;;;;;;8.02;5.05;;;;;;;11.70;100.00;99922.94;6253541;22;20441;-95
2023/07/05 05:44:34;;;;;;;9.10;4.82;;;;;;;11.72;100.00;99922.81;6150381;23;20051;-94
2023/07/05 05:46:59;;;;;;;7.40;5.25;;;;;;;11.84;100.00;99932.31;6150290;23;20009;-94
2023/07/05 05:49:25;;;;;;;7.00;4.90;;;;;;;11.97;100.00;99945.22;6252803;22;20009;-94
2023/07/05 05:51:50;;;;;;;6.97;4.47;;;;;;;11.99;100.00;99936.41;6253402;22;20006;-94
2023/07/05 05:54:15;;;;;;;10.60;4.95;;;;;;;12.02;100.00;99942.31;6253070;22;20432;-94
2023/07/05 05:56:41;;;;;;;7.15;4.35;;;;;;;12.10;100.00;99940.00;6253001;22;20036;-95
2023/07/05 05:59:06;;;;;;;6.88;4.47;;;;;;;12.13;100.00;99950.13;6253276;22;20424;-93
2023/07/05 06:01:32;;;;;;;7.75;4.80;;;;;;;12.19;100.00;99955.69;6252981;22;20013;-94
2023/07/05 06:03:57;;;;;;;8.57;4.78;;;;;;;12.19;100.00;99954.84;6252948;22;20428;-94
2023/07/05 06:06:23;;;;;;;8.32;4.85;;;;;;;12.23;100.00;99956.28;6252844;22;20029;-95
2023/07/05 06:08:48;;;;;;;8.65;4.05;;;;;;;12.35;100.00;99964.94;6150402;23;20033;-94
2023/07/05 06:11:13;;;;;;;8.00;4.88;;;;;;;12.39;100.00;99968.97;6253022;22;20370;-93
2023/07/05 06:13:39;;;;;;;9.45;4.00;;;;;;;12.66;100.00;99986.00;6150353;23;20005;-94
2023/07/05 06:16:04;;;;;;;6.38;3.92;;;;;;;13.16;100.00;99987.41;6150297;23;20002;-95
2023/07/05 06:18:30;;;;;;;6.95;4.07;;;;;;;13.34;100.00;99989.56;6253046;22;20033;-92
2023/07/05 06:20:55;;;;;;;9.07;4.00;;;;;;;13.32;100.00;99989.69;6149223;22;20305;-93
2023/07/05 06:23:21;;;;;;;7.55;4.45;;;;;;;13.47;100.00;100000.66;6253249;22;20013;-93
2023/07/05 06:25:48;;;;;;;6.78;4.20;;;;;;;13.85;100.00;99994.25;6253074;22;20013;-94
2023/07/05 06:28:17;;;;;;;6.57;4.10;;;;;;;14.04;100.00;100004.84;6149791;23;20424;-94
2023/07/05 06:30:44;;;;;;;6.82;3.72;;;;;;;14.37;100.00;100005.72;6252967;22;20005;-94
2023/07/05 06:33:09;;;;;;;6.45;3.75;;;;;;;13.72;100.00;100002.19;6150159;23;20002;-93
2023/07/05 06:35:35;;;;;;;6.32;3.42;;;;;;;13.69;100.00;99999.84;6150200;23;20002;-94
2023/07/05 06:38:01;;;;;;;6.03;3.00;;;;;;;13.72;100.00;100006.56;6252713;22;20009;-94
2023/07/05 06:40:26;;;;;;;6.57;2.92;;;;;;;13.63;100.00;100011.53;6252604;22;20009;-94
2023/07/05 06:42:52;;;;;;;8.98;3.55;;;;;;;13.65;100.00;100012.19;6252875;22;20025;-93
2023/07/05 06:45:17;;;;;;;7.05;4.13;;;;;;;13.83;100.00;100011.75;6252886;22;20025;-94
2023/07/05 06:47:42;;;;;;;4.60;2.42;;;;;;;13.88;100.00;100020.00;6149921;23;20332;-94
2023/07/05 06:50:09;;;;;;;5.85;2.83;;;;;;;13.74;100.00;100028.00;6252594;22;20029;-93
2023/07/05 06:52:34;;;;;;;9.57;2.95;;;;;;;13.73;100.00;100034.13;6149761;23;19997;-93
2023/07/05 06:55:00;;;;;;;5.70;2.67;;;;;;;13.69;100.00;100039.56;6150091;23;20001;-94
2023/07/05 06:57:25;;;;;;;8.27;2.95;;;;;;;13.61;100.00;100043.69;6150034;23;20073;-94
2023/07/05 06:59:51;;;;;;;3.38;2.20;;;;;;;13.36;100.00;100039.53;6252601;22;20010;-94
2023/07/05 07:02:16;;;;;;;5.97;2.38;;;;;;;13.44;100.00;100039.78;6252803;22;20013;-94
2023/07/05 07:04:42;;;;;;;4.60;2.50;;;;;;;13.39;100.00;100045.31;6252956;22;20006;-94
2023/07/05 07:07:07;;;;;;;2.40;2.20;;;;;;;13.51;100.00;100051.34;6252924;22;20002;-94
2023/07/05 07:09:34;;;;;;;3.45;2.33;;;;;;;13.89;100.00;100047.56;6252940;22;20012;-94
2023/07/05 07:11:59;;;;;;;4.40;2.15;;;;;;;14.47;100.00;100048.19;6252053;22;20028;-94
2023/07/05 07:14:25;;;;;;;5.03;2.65;;;;;;;14.60;100.00;100052.41;6150006;23;20001;-94
2023/07/05 07:16:51;;;;;;;5.68;2.63;;;;;;;14.42;100.00;100060.72;6252443;22;20498;-94
2023/07/05 07:19:17;;;;;;;5.40;2.67;;;;;;;14.62;100.00;100056.53;6149714;22;20012;-93
2023/07/05 07:21:43;;;;;;;5.60;2.20;;;;;;;16.53;98.79;100064.75;6252532;22;20013;-93
2023/07/05 07:24:09;;;;;;;9.50;2.40;;;;;;;19.30;78.83;100059.72;6149734;22;19998;-95
2023/07/05 07:26:34;;;;;;;7.72;2.47;;;;;;;20.65;69.40;100066.81;6149551;23;20010;-95
2023/07/05 07:28:59;;;;;;;3.22;1.83;;;;;;;20.81;65.13;100073.88;6149809;23;20012;-93
2023/07/05 07:31:28;;;;;;;3.03;1.33;;;;;;;21.90;60.60;100075.19;6149665;22;20080;-94
2023/07/05 07:33:54;;;;;;;3.00;1.30;;;;;;;21.68;61.33;100080.19;6152168;23;20070;-96
2023/07/05 07:36:29;;;;;;;4.55;1.60;;;;;;;21.50;60.76;100092.69;6254659;22;20440;-95
2023/07/05 07:38:55;;;;;;;2.47;1.33;;;;;;;19.41;62.97;100083.84;6254959;22;20029;-95
2023/07/05 07:41:30;;;;;;;1.58;1.20;;;;;;;20.46;63.66;100081.03;6254529;22;20102;-95
2023/07/05 07:44:00;;;;;;;4.35;1.20;;;;;;;21.32;59.67;100077.13;6254830;22;20009;-95
2023/07/05 07:46:27;;;;;;;2.88;1.27;;;;;;;20.35;61.87;100084.75;6254765;22;20439;-95
2023/07/05 07:48:55;;;;;;;3.17;1.30;;;;;;;19.46;66.56;100093.84;6254993;22;20439;-95
2023/07/05 07:51:24;;;;;;;2.42;1.10;;;;;;;17.91;72.20;100093.16;6151161;22;19997;-93
2023/07/05 07:53:50;;;;;;;31.70;4.30;;;;;;;17.50;74.09;100093.38;6151191;23;20377;-94
2023/07/05 07:56:19;;;;;;;8.65;1.95;;;;;;;18.51;72.29;100092.72;6254010;22;20052;-93
2023/07/05 07:58:47;;;;;;;6.22;1.40;;;;;;;18.44;71.54;100087.25;6150944;23;20499;-94
2023/07/05 08:01:25;;;;;;;8.02;1.75;;;;;;;18.90;71.02;100092.41;6150900;22;20012;-93
2023/07/05 08:03:52;;;;;;;2.83;1.33;;;;;;;19.43;66.30;100094.97;6253930;22;20017;-94
2023/07/05 08:06:18;;;;;;;2.88;1.10;;;;;;;19.09;68.25;100107.94;6150935;22;20006;-94
2023/07/05 08:08:44;;;;;;;4.20;1.17;;;;;;;18.37;68.26;100107.91;6151421;23;20005;-93
2023/07/05 08:11:09;;;;;;;3.00;0.88;;;;;;;18.39;67.39;100105.97;6253840;22;20091;-96
2023/07/05 08:13:37;;;;;;;5.95;1.35;;;;;;;19.44;66.41;100108.88;6254199;22;20010;-96
2023/07/05 08:16:03;;;;;;;3.35;1.10;;;;;;;19.31;65.56;100108.44;6151345;23;20005;-95
2023/07/05 08:18:29;;;;;;;4.03;1.27;;;;;;;19.12;64.66;100112.06;6254475;22;20084;-94
2023/07/05 08:20:56;;;;;;;5.18;1.05;;;;;;;18.98;65.22;100121.28;6254321;22;20431;-95
2023/07/05 08:23:21;;;;;;;3.97;0.80;;;;;;;18.56;65.12;100116.59;6254460;22;20026;-93
2023/07/05 08:25:56;;;;;;;7.15;1.08;;;;;;;18.37;68.87;100115.75;6253792;22;20055;-95
2023/07/05 08:28:25;;;;;;;2.63;1.08;;;;;;;18.34;66.66;100113.44;6150729;23;20602;-95
2023/07/05 08:31:02;;;;;;;6.55;1.00;;;;;;;18.80;64.72;100113.41;6254192;22;20006;-94
2023/07/05 08:33:31;;;;;;;6.25;1.08;;;;;;;19.93;61.92;100121.47;6254442;22;20096;-95
2023/07/05 08:36:05;;;;;;;8.27;1.05;;;;;;;20.24;58.58;100129.59;6254506;22;20084;-95
2023/07/05 08:38:31;;;;;;;2.45;0.93;;;;;;;19.69;60.79;100128.19;6254155;22;20031;-96
2023/07/05 08:41:05;;;;;;;2.97;1.02;;;;;;;18.68;62.25;100127.66;6253977;22;20480;-94
2023/07/05 08:43:53;;;;;;;1.75;0.98;;;;;;;18.08;64.95;100121.13;6150778;23;20008;-95
2023/07/05 08:46:19;;;;;;;3.38;0.82;;;;;;;18.18;65.56;100124.50;6159009;22;20010;-94
2023/07/05 08:48:47;;;;;;;4.85;1.17;;;;;;;18.46;63.70;100127.13;6253689;22;20009;-95
2023/07/05 08:51:15;;;;;;;4.47;1.95;;;;;;;18.77;61.64;100132.84;6253467;22;20047;-93
2023/07/05 08:53:51;;;;;;;4.93;0.90;;;;;;;18.48;63.59;100134.78;6150646;23;20025;-93
2023/07/05 08:56:25;;;;;;;1.67;0.80;;;;;;;18.26;62.37;100136.84;6150769;23;19998;-93
2023/07/05 08:58:57;;;;;;;4.00;1.17;;;;;;;17.94;64.03;100145.09;6150688;23;20043;-93
2023/07/05 09:01:28;;;;;;;1.77;1.38;;;;;;;17.58;65.06;100146.66;6150411;22;20052;-93
2023/07/05 09:03:56;;;;;;;3.58;1.20;;;;;;;17.75;65.98;100141.56;6253475;22;20063;-94
2023/07/05 09:06:45;;;;;;;2.05;0.80;;;;;;;17.43;64.22;100154.09;6253269;22;20084;-94
2023/07/05 09:09:41;;;;;;;2.30;0.90;;;;;;;17.18;63.35;100163.31;6151941;22;20001;-92
2023/07/05 09:12:43;;;;;;;2.60;0.68;;;;;;;17.89;63.46;100160.34;6150624;22;20098;-93
2023/07/05 09:15:14;;;;;;;9.48;0.73;;;;;;;19.28;58.12;100158.47;6253394;22;20013;-94
2023/07/05 09:18:01;;;;;;;3.60;1.70;;;;;;;19.48;56.96;100156.50;6253918;22;20005;-94
2023/07/05 09:21:00;;;;;;;2.63;0.80;;;;;;;19.17;59.67;100155.13;6253726;22;20436;-94
2023/07/05 09:23:32;;;;;;;1.73;0.75;;;;;;;19.53;59.44;100169.94;6150610;23;20143;-95
2023/07/05 09:26:07;;;;;;;2.38;0.82;;;;;;;19.12;57.81;100165.22;6253651;22;20033;-95
2023/07/05 09:29:34;;;;;;;5.05;1.10;;;;;;;19.69;57.87;100166.66;6253926;22;20001;-94
2023/07/05 09:32:12;;;;;;;3.80;0.70;;;;;;;19.92;54.88;100180.88;6036844;23;20007;-95
2023/07/05 09:34:43;;;;;;;2.47;1.23;;;;;;;20.30;55.66;100187.44;6036950;23;20007;-95
2023/07/05 09:37:22;;;;;;;3.05;0.98;;;;;;;20.04;54.76;100184.84;6152210;22;20255;-96
2023/07/05 09:40:38;;;;;;;2.17;0.80;;;;;;;19.62;55.28;100198.66;6253259;22;20014;-94
2023/07/05 09:43:13;;;;;;;1.92;0.82;;;;;;;20.01;54.13;100190.41;6242607;22;20009;-94
2023/07/05 09:45:39;;;;;;;3.83;0.73;;;;;;;20.63;55.10;100192.00;6253775;22;20036;-96
2023/07/05 09:48:09;;;;;;;2.90;0.77;;;;;;;20.57;52.55;100196.09;6253849;22;20428;-95
2023/07/05 09:50:35;;;;;;;2.10;0.80;;;;;;;19.72;53.07;100208.25;6253558;22;20089;-95
2023/07/05 09:53:15;;;;;;;3.13;0.77;;;;;;;20.26;53.57;100208.88;6254141;22;20092;-96
2023/07/05 09:56:09;;;;;;;1.73;0.63;;;;;;;19.54;52.75;100203.84;6253325;22;20002;-95
2023/07/05 09:58:35;;;;;;;1.92;0.57;;;;;;;20.55;54.16;100215.56;6253734;22;20013;-95
2023/07/05 10:01:04;;;;;;;0.65;0.50;;;;;;;20.51;52.73;100210.66;6254504;22;20066;-95
2023/07/05 10:03:36;;;;;;;1.98;0.50;;;;;;;21.02;48.87;100202.78;6253655;22;20023;-95
2023/07/05 10:06:07;;;;;;;3.53;1.10;;;;;;;21.30;49.70;100215.59;6254025;22;20063;-95
2023/07/05 10:08:42;;;;;;;3.60;0.68;;;;;;;20.72;49.62;100214.66;6253886;22;20013;-96
2023/07/05 10:11:19;;;;;;;2.92;0.40;;;;;;;21.88;49.42;100216.44;6253802;22;20140;-95
2023/07/05 10:13:45;;;;;;;1.90;0.70;;;;;;;21.90;46.86;100211.84;6253135;22;20016;-95
2023/07/05 10:16:11;;;;;;;2.50;0.45;;;;;;;22.99;46.08;100208.44;6253353;22;20332;-95
2023/07/05 10:18:41;;;;;;;1.85;0.60;;;;;;;23.01;47.51;100211.72;6253215;22;20479;-96
2023/07/05 10:21:19;;;;;;;1.95;0.63;;;;;;;22.82;45.77;100220.88;6253903;22;20059;-95
2023/07/05 10:23:46;;;;;;;2.13;0.70;;;;;;;23.10;44.46;100212.50;6254002;22;20059;-95
2023/07/05 10:26:12;;;;;;;3.08;0.80;;;;;;;23.46;44.30;100211.91;6254194;22;20096;-95
2023/07/05 10:28:41;;;;;;;4.45;0.82;;;;;;;23.25;44.15;100215.19;6253540;22;20040;-95
2023/07/05 10:31:27;;;;;;;2.90;0.50;;;;;;;23.66;42.37;100222.75;6253311;22;19997;-95
2023/07/05 10:34:05;;;;;;;2.90;0.63;;;;;;;24.43;42.51;100219.00;6253630;22;20017;-96
2023/07/05 10:36:30;;;;;;;2.50;0.43;;;;;;;24.09;41.64;100215.09;6253482;22;20057;-95
2023/07/05 10:38:56;;;;;;;2.67;0.63;;;;;;;23.67;42.92;100217.28;6253145;22;20029;-95
2023/07/05 10:41:31;;;;;;;3.60;1.00;;;;;;;23.37;40.82;100210.34;6253164;22;20012;-96
2023/07/05 10:44:24;;;;;;;3.28;0.90;;;;;;;24.30;42.61;100227.56;6253518;22;20017;-96
2023/07/05 10:46:50;;;;;;;3.85;0.68;;;;;;;25.25;40.05;100231.13;6253364;22;20014;-95
2023/07/05 10:49:17;;;;;;;5.38;0.95;;;;;;;24.86;39.70;100229.69;6253434;22;20029;-96
2023/07/05 10:51:48;;;;;;;2.25;1.17;;;;;;;25.19;39.47;100228.25;6253226;22;20033;-95
2023/07/05 10:54:32;;;;;;;3.42;0.80;;;;;;;24.95;40.23;100225.94;6150570;23;20001;-96
2023/07/05 10:57:03;;;;;;;3.55;0.77;;;;;;;24.94;39.84;100225.09;6253212;22;20013;-95
2023/07/05 10:59:51;;;;;;;3.28;0.70;;;;;;;25.17;40.54;100230.25;6253117;22;20001;-96
2023/07/05 11:02:32;;;;;;;2.25;0.63;;;;;;;24.12;40.57;100234.03;6150309;23;20440;-96
2023/07/05 11:04:58;;;;;;;2.40;1.23;;;;;;;23.93;41.49;100238.00;6252891;22;20005;-95
2023/07/05 11:07:25;;;;;;;5.95;1.20;;;;;;;23.22;43.65;100239.25;6254423;22;20002;-95
2023/07/05 11:09:51;;;;;;;3.50;1.10;;;;;;;22.45;45.10;100247.84;6255313;22;20429;-95
2023/07/05 11:12:27;;;;;;;6.18;1.65;;;;;;;22.40;45.21;100252.78;6254764;22;20086;-94
2023/07/05 11:14:55;;;;;;;2.42;1.02;;;;;;;22.52;46.06;100243.53;6151068;23;20463;-94
2023/07/05 11:17:36;;;;;;;2.75;1.45;;;;;;;23.33;43.58;100241.44;6255281;22;20340;-96
2023/07/05 11:20:02;;;;;;;3.33;0.98;;;;;;;23.06;44.24;100238.34;6255382;22;20009;-94
2023/07/05 11:22:43;;;;;;;1.67;0.77;;;;;;;22.33;45.00;100255.25;6150958;23;20031;-94
2023/07/05 11:25:16;;;;;;;5.82;1.23;;;;;;;22.40;46.36;100245.72;6151348;22;20379;-94
2023/07/05 11:27:49;;;;;;;2.38;0.70;;;;;;;23.22;45.28;100244.50;6151792;23;20071;-94
2023/07/05 11:30:37;;;;;;;4.57;0.75;;;;;;;24.05;42.72;100246.28;6254907;22;20016;-96
2023/07/05 11:33:02;;;;;;;5.22;0.70;;;;;;;23.99;41.65;100241.72;6255155;22;20017;-95
2023/07/05 11:35:48;;;;;;;2.38;1.25;;;;;;;24.83;42.07;100246.72;6254591;22;20006;-95
2023/07/05 11:38:35;;;;;;;2.40;0.75;;;;;;;24.72;41.22;100247.19;6255103;22;20009;-95